sensor_id;sensor_type;location;lat;lon;timestamp;pressure;altitude;pressure_sealevel;temperature;humidity
60371;BME280;48550;40.588;49.684;2023-05-25T00:01:25;101302.88;;;18.29;100.00
60371;BME280;48550;40.588;49.684;2023-05-25T00:03:51;101303.97;;;18.28;100.00
60371;BME280;48550;40.588;49.684;2023-05-25T00:06:20;101319.19;;;18.29;100.00
60371;BME280;48550;40.588;49.684;2023-05-25T00:08:46;101321.09;;;18.33;100.00
60371;BME280;48550;40.588;49.684;2023-05-25T00:11:12;101319.19;;;18.34;100.00
60371;BME280;48550;40.588;49.684;2023-05-25T00:13:38;101309.69;;;18.36;100.00
60371;BME280;48550;40.588;49.684;2023-05-25T00:16:05;101312.69;;;18.40;100.00
60371;BME280;48550;40.588;49.684;2023-05-25T00:18:31;101321.63;;;18.35;100.00
60371;BME280;48550;40.588;49.684;2023-05-25T00:21:02;101340.66;;;18.35;100.00
60371;BME280;48550;40.588;49.684;2023-05-25T00:23:30;101331.16;;;18.33;100.00
60371;BME280;48550;40.588;49.684;2023-05-25T00:25:55;101323.53;;;18.40;100.00
60371;BME280;48550;40.588;49.684;2023-05-25T00:28:21;101309.69;;;18.41;100.00
60371;BME280;48550;40.588;49.684;2023-05-25T00:30:47;101309.41;;;18.38;100.00
60371;BME280;48550;40.588;49.684;2023-05-25T00:33:14;101320.28;;;18.33;100.00
60371;BME280;48550;40.588;49.684;2023-05-25T00:35:41;101323.25;;;18.31;100.00
60371;BME280;48550;40.588;49.684;2023-05-25T00:38:17;101336.03;;;18.31;100.00
60371;BME280;48550;40.588;49.684;2023-05-25T00:40:43;101335.22;;;18.30;100.00
60371;BME280;48550;40.588;49.684;2023-05-25T00:43:10;101349.09;;;18.34;100.00
60371;BME280;48550;40.588;49.684;2023-05-25T00:45:37;101345.81;;;18.32;100.00
60371;BME280;48550;40.588;49.684;2023-05-25T00:48:03;101349.63;;;18.31;100.00
60371;BME280;48550;40.588;49.684;2023-05-25T00:50:38;101337.41;;;18.33;100.00
60371;BME280;48550;40.588;49.684;2023-05-25T00:53:05;101346.34;;;18.29;100.00
60371;BME280;48550;40.588;49.684;2023-05-25T00:55:35;101344.19;;;18.26;100.00
60371;BME280;48550;40.588;49.684;2023-05-25T00:58:04;101344.16;;;18.21;100.00
60371;BME280;48550;40.588;49.684;2023-05-25T01:00:32;101362.66;;;18.24;100.00
60371;BME280;48550;40.588;49.684;2023-05-25T01:03:05;101362.66;;;18.29;100.00
60371;BME280;48550;40.588;49.684;2023-05-25T01:05:37;101355.31;;;18.29;100.00
60371;BME280;48550;40.588;49.684;2023-05-25T01:08:07;101353.69;;;18.33;100.00
60371;BME280;48550;40.588;49.684;2023-05-25T01:10:36;101348.00;;;18.35;100.00
60371;BME280;48550;40.588;49.684;2023-05-25T01:13:03;101361.88;;;18.38;100.00
60371;BME280;48550;40.588;49.684;2023-05-25T01:15:31;101365.66;;;18.37;100.00
60371;BME280;48550;40.588;49.684;2023-05-25T01:17:57;101367.28;;;18.38;100.00
60371;BME280;48550;40.588;49.684;2023-05-25T01:20:25;101361.31;;;18.36;100.00
60371;BME280;48550;40.588;49.684;2023-05-25T01:23:11;101356.97;;;18.35;100.00
60371;BME280;48550;40.588;49.684;2023-05-25T01:25:50;101356.97;;;18.35;100.00
60371;BME280;48550;40.588;49.684;2023-05-25T01:28:24;101358.59;;;18.36;100.00
60371;BME280;48550;40.588;49.684;2023-05-25T01:30:54;101362.94;;;18.37;100.00
60371;BME280;48550;40.588;49.684;2023-05-25T01:33:21;101364.03;;;18.36;100.00
60371;BME280;48550;40.588;49.684;2023-05-25T01:35:48;101366.75;;;18.31;100.00
60371;BME280;48550;40.588;49.684;2023-05-25T01:38:16;101375.72;;;18.37;100.00
60371;BME280;48550;40.588;49.684;2023-05-25T01:40:42;101383.06;;;18.36;100.00
60371;BME280;48550;40.588;49.684;2023-05-25T01:43:08;101396.94;;;18.40;100.00
60371;BME280;48550;40.588;49.684;2023-05-25T01:45:34;101389.59;;;18.51;100.00
60371;BME280;48550;40.588;49.684;2023-05-25T01:48:20;101383.91;;;18.52;100.00
60371;BME280;48550;40.588;49.684;2023-05-25T01:50:53;101396.47;;;18.63;100.00
60371;BME280;48550;40.588;49.684;2023-05-25T01:53:41;101394.28;;;18.60;100.00
60371;BME280;48550;40.588;49.684;2023-05-25T01:56:09;101407.63;;;18.62;100.00
60371;BME280;48550;40.588;49.684;2023-05-25T01:58:41;101409.81;;;18.70;100.00
60371;BME280;48550;40.588;49.684;2023-05-25T02:01:09;101418.81;;;18.81;100.00
60371;BME280;48550;40.588;49.684;2023-05-25T02:03:40;101424.53;;;18.84;100.00
60371;BME280;48550;40.588;49.684;2023-05-25T02:06:06;101407.94;;;18.91;100.00
60371;BME280;48550;40.588;49.684;2023-05-25T02:08:32;101395.97;;;18.97;100.00
60371;BME280;48550;40.588;49.684;2023-05-25T02:10:58;101400.59;;;19.01;100.00
60371;BME280;48550;40.588;49.684;2023-05-25T02:13:24;101408.47;;;18.98;100.00
60371;BME280;48550;40.588;49.684;2023-05-25T02:15:50;101403.03;;;18.98;100.00
60371;BME280;48550;40.588;49.684;2023-05-25T02:18:15;101410.66;;;19.11;100.00
60371;BME280;48550;40.588;49.684;2023-05-25T02:20:43;101419.91;;;19.15;100.00
60371;BME280;48550;40.588;49.684;2023-05-25T02:23:09;101417.19;;;19.15;100.00
60371;BME280;48550;40.588;49.684;2023-05-25T02:25:35;101409.56;;;19.12;100.00
60371;BME280;48550;40.588;49.684;2023-05-25T02:28:01;101407.09;;;19.21;100.00
60371;BME280;48550;40.588;49.684;2023-05-25T02:30:26;101407.91;;;19.21;100.00
60371;BME280;48550;40.588;49.684;2023-05-25T02:32:52;101407.94;;;19.42;100.00
60371;BME280;48550;40.588;49.684;2023-05-25T02:35:18;101423.69;;;19.50;100.00
60371;BME280;48550;40.588;49.684;2023-05-25T02:37:44;101431.88;;;19.65;100.00
60371;BME280;48550;40.588;49.684;2023-05-25T02:40:10;101428.00;;;19.81;100.00
60371;BME280;48550;40.588;49.684;2023-05-25T02:42:36;101420.91;;;19.90;100.00
60371;BME280;48550;40.588;49.684;2023-05-25T02:45:03;101417.91;;;19.92;100.00
60371;BME280;48550;40.588;49.684;2023-05-25T02:47:30;101408.81;;;20.17;100.00
60371;BME280;48550;40.588;49.684;2023-05-25T02:49:56;101416.47;;;20.15;100.00
60371;BME280;48550;40.588;49.684;2023-05-25T02:52:22;101431.09;;;20.39;100.00
60371;BME280;48550;40.588;49.684;2023-05-25T02:54:50;101434.00;;;20.58;100.00
60371;BME280;48550;40.588;49.684;2023-05-25T02:57:15;101439.28;;;20.34;100.00
60371;BME280;48550;40.588;49.684;2023-05-25T02:59:41;101444.47;;;20.80;100.00
60371;BME280;48550;40.588;49.684;2023-05-25T03:02:07;101444.72;;;21.28;100.00
60371;BME280;48550;40.588;49.684;2023-05-25T03:04:33;101447.69;;;21.60;100.00
60371;BME280;48550;40.588;49.684;2023-05-25T03:07:02;101454.19;;;21.35;100.00
60371;BME280;48550;40.588;49.684;2023-05-25T03:09:28;101441.66;;;21.63;100.00
60371;BME280;48550;40.588;49.684;2023-05-25T03:11:53;101447.34;;;21.38;100.00
60371;BME280;48550;40.588;49.684;2023-05-25T03:14:19;101459.41;;;21.89;100.00
60371;BME280;48550;40.588;49.684;2023-05-25T03:16:45;101465.25;;;22.31;100.00
60371;BME280;48550;40.588;49.684;2023-05-25T03:19:11;101460.53;;;22.36;100.00
60371;BME280;48550;40.588;49.684;2023-05-25T03:21:37;101466.16;;;22.45;100.00
60371;BME280;48550;40.588;49.684;2023-05-25T03:24:03;101459.28;;;22.47;100.00
60371;BME280;48550;40.588;49.684;2023-05-25T03:26:29;101460.75;;;22.16;100.00
60371;BME280;48550;40.588;49.684;2023-05-25T03:28:56;101459.00;;;22.01;100.00
60371;BME280;48550;40.588;49.684;2023-05-25T03:31:22;101464.22;;;21.74;100.00
60371;BME280;48550;40.588;49.684;2023-05-25T03:33:48;101456.03;;;21.45;100.00
60371;BME280;48550;40.588;49.684;2023-05-25T03:36:14;101456.94;;;21.35;100.00
60371;BME280;48550;40.588;49.684;2023-05-25T03:38:42;101464.09;;;21.60;100.00
60371;BME280;48550;40.588;49.684;2023-05-25T03:41:08;101470.06;;;22.15;100.00
60371;BME280;48550;40.588;49.684;2023-05-25T03:43:34;101475.66;;;22.05;100.00
60371;BME280;48550;40.588;49.684;2023-05-25T03:45:59;101470.00;;;22.20;100.00
60371;BME280;48550;40.588;49.684;2023-05-25T03:48:25;101466.63;;;22.28;100.00
60371;BME280;48550;40.588;49.684;2023-05-25T03:50:51;101475.53;;;22.81;100.00
60371;BME280;48550;40.588;49.684;2023-05-25T03:53:16;101468.88;;;22.88;100.00
60371;BME280;48550;40.588;49.684;2023-05-25T03:55:42;101475.31;;;24.08;100.00
60371;BME280;48550;40.588;49.684;2023-05-25T03:58:08;101479.66;;;24.64;100.00
60371;BME280;48550;40.588;49.684;2023-05-25T04:00:37;101476.91;;;24.50;100.00
60371;BME280;48550;40.588;49.684;2023-05-25T04:03:03;101476.44;;;24.84;100.00
60371;BME280;48550;40.588;49.684;2023-05-25T04:05:29;101471.03;;;25.29;100.00
60371;BME280;48550;40.588;49.684;2023-05-25T04:07:54;101481.03;;;25.56;100.00
60371;BME280;48550;40.588;49.684;2023-05-25T04:10:21;101473.88;;;26.08;100.00
60371;BME280;48550;40.588;49.684;2023-05-25T04:12:47;101468.81;;;26.50;100.00
60371;BME280;48550;40.588;49.684;2023-05-25T04:15:13;101477.47;;;27.09;100.00
60371;BME280;48550;40.588;49.684;2023-05-25T04:17:39;101480.16;;;26.57;100.00
60371;BME280;48550;40.588;49.684;2023-05-25T04:20:08;101483.13;;;26.86;100.00
60371;BME280;48550;40.588;49.684;2023-05-25T04:22:35;101496.59;;;27.22;100.00
60371;BME280;48550;40.588;49.684;2023-05-25T04:25:05;101496.41;;;27.36;100.00
60371;BME280;48550;40.588;49.684;2023-05-25T04:27:31;101502.09;;;27.22;100.00
60371;BME280;48550;40.588;49.684;2023-05-25T04:29:57;101495.91;;;28.45;99.46
60371;BME280;48550;40.588;49.684;2023-05-25T04:32:23;101495.66;;;28.21;93.15
60371;BME280;48550;40.588;49.684;2023-05-25T04:34:49;101490.88;;;28.89;85.31
60371;BME280;48550;40.588;49.684;2023-05-25T04:37:15;101497.00;;;28.73;72.79
60371;BME280;48550;40.588;49.684;2023-05-25T04:39:41;101492.53;;;30.01;59.46
60371;BME280;48550;40.588;49.684;2023-05-25T04:42:07;101491.03;;;29.13;61.49
60371;BME280;48550;40.588;49.684;2023-05-25T04:44:32;101498.31;;;30.20;55.51
60371;BME280;48550;40.588;49.684;2023-05-25T04:46:58;101495.47;;;29.71;54.10
60371;BME280;48550;40.588;49.684;2023-05-25T04:49:26;101490.38;;;28.45;60.09
60371;BME280;48550;40.588;49.684;2023-05-25T04:51:52;101482.78;;;29.58;56.28
60371;BME280;48550;40.588;49.684;2023-05-25T04:54:18;101481.03;;;30.11;51.14
60371;BME280;48550;40.588;49.684;2023-05-25T04:56:44;101468.66;;;30.21;49.38
60371;BME280;48550;40.588;49.684;2023-05-25T04:59:09;101467.97;;;29.99;51.03
60371;BME280;48550;40.588;49.684;2023-05-25T05:01:35;101472.16;;;30.82;47.32
60371;BME280;48550;40.588;49.684;2023-05-25T05:04:09;101468.59;;;30.82;45.04
60371;BME280;48550;40.588;49.684;2023-05-25T05:06:34;101462.38;;;30.73;45.58
60371;BME280;48550;40.588;49.684;2023-05-25T05:09:01;101470.72;;;32.04;42.89
60371;BME280;48550;40.588;49.684;2023-05-25T05:11:28;101458.59;;;31.49;43.24
60371;BME280;48550;40.588;49.684;2023-05-25T05:13:54;101466.84;;;31.92;40.97
60371;BME280;48550;40.588;49.684;2023-05-25T05:16:21;101461.63;;;32.38;39.50
60371;BME280;48550;40.588;49.684;2023-05-25T05:18:47;101459.34;;;31.77;40.98
60371;BME280;48550;40.588;49.684;2023-05-25T05:21:12;101457.00;;;31.64;41.64
60371;BME280;48550;40.588;49.684;2023-05-25T05:23:38;101456.72;;;32.16;40.36
60371;BME280;48550;40.588;49.684;2023-05-25T05:26:04;101461.63;;;30.60;43.38
60371;BME280;48550;40.588;49.684;2023-05-25T05:28:31;101448.28;;;31.06;43.52
60371;BME280;48550;40.588;49.684;2023-05-25T05:30:57;101443.69;;;30.70;44.83
60371;BME280;48550;40.588;49.684;2023-05-25T05:33:23;101442.72;;;30.78;44.21
60371;BME280;48550;40.588;49.684;2023-05-25T05:35:50;101449.03;;;31.62;42.93
60371;BME280;48550;40.588;49.684;2023-05-25T05:38:17;101440.13;;;31.25;42.17
60371;BME280;48550;40.588;49.684;2023-05-25T05:40:42;101443.63;;;32.32;40.19
60371;BME280;48550;40.588;49.684;2023-05-25T05:43:12;101443.72;;;31.41;42.11
60371;BME280;48550;40.588;49.684;2023-05-25T05:45:39;101434.78;;;32.27;40.26
60371;BME280;48550;40.588;49.684;2023-05-25T05:48:05;101442.16;;;31.72;41.74
60371;BME280;48550;40.588;49.684;2023-05-25T05:50:35;101446.28;;;31.18;43.36
60371;BME280;48550;40.588;49.684;2023-05-25T05:53:01;101448.59;;;30.88;43.01
60371;BME280;48550;40.588;49.684;2023-05-25T05:55:27;101440.13;;;30.69;41.92
60371;BME280;48550;40.588;49.684;2023-05-25T05:57:52;101435.22;;;31.06;41.91
60371;BME280;48550;40.588;49.684;2023-05-25T06:00:18;101450.47;;;31.87;42.35
60371;BME280;48550;40.588;49.684;2023-05-25T06:02:45;101444.09;;;31.55;42.88
60371;BME280;48550;40.588;49.684;2023-05-25T06:05:11;101442.47;;;32.17;40.88
60371;BME280;48550;40.588;49.684;2023-05-25T06:07:37;101445.72;;;31.88;41.81
60371;BME280;48550;40.588;49.684;2023-05-25T06:10:04;101449.75;;;31.90;39.46
60371;BME280;48550;40.588;49.684;2023-05-25T06:12:29;101454.13;;;31.91;39.74
60371;BME280;48550;40.588;49.684;2023-05-25T06:14:55;101455.56;;;31.54;40.43
60371;BME280;48550;40.588;49.684;2023-05-25T06:17:22;101444.59;;;30.74;44.54
60371;BME280;48550;40.588;49.684;2023-05-25T06:19:48;101453.94;;;31.53;41.92
60371;BME280;48550;40.588;49.684;2023-05-25T06:22:17;101453.41;;;31.95;40.13
60371;BME280;48550;40.588;49.684;2023-05-25T06:24:43;101451.50;;;31.08;42.53
60371;BME280;48550;40.588;49.684;2023-05-25T06:27:08;101450.34;;;30.81;44.77
60371;BME280;48550;40.588;49.684;2023-05-25T06:29:34;101450.34;;;31.37;43.95
60371;BME280;48550;40.588;49.684;2023-05-25T06:32:00;101443.13;;;32.11;41.53
60371;BME280;48550;40.588;49.684;2023-05-25T06:34:25;101431.50;;;32.05;41.87
60371;BME280;48550;40.588;49.684;2023-05-25T06:36:51;101432.41;;;31.18;43.79
60371;BME280;48550;40.588;49.684;2023-05-25T06:39:17;101430.13;;;31.36;42.26
60371;BME280;48550;40.588;49.684;2023-05-25T06:41:43;101430.31;;;31.90;41.47
60371;BME280;48550;40.588;49.684;2023-05-25T06:44:09;101416.00;;;32.39;40.97
60371;BME280;48550;40.588;49.684;2023-05-25T06:46:35;101418.94;;;31.48;42.11
60371;BME280;48550;40.588;49.684;2023-05-25T06:49:01;101417.25;;;32.07;40.52
60371;BME280;48550;40.588;49.684;2023-05-25T06:51:28;101408.09;;;32.41;40.57
60371;BME280;48550;40.588;49.684;2023-05-25T06:53:54;101420.69;;;32.35;40.22
60371;BME280;48550;40.588;49.684;2023-05-25T06:56:23;101409.13;;;32.52;40.00
60371;BME280;48550;40.588;49.684;2023-05-25T06:58:49;101408.50;;;31.73;41.84
60371;BME280;48550;40.588;49.684;2023-05-25T07:01:15;101400.78;;;31.07;43.97
60371;BME280;48550;40.588;49.684;2023-05-25T07:03:41;101408.81;;;30.96;43.90
60371;BME280;48550;40.588;49.684;2023-05-25T07:06:07;101408.03;;;31.40;42.49
60371;BME280;48550;40.588;49.684;2023-05-25T07:08:33;101406.44;;;31.70;41.53
60371;BME280;48550;40.588;49.684;2023-05-25T07:10:59;101404.81;;;31.10;44.55
60371;BME280;48550;40.588;49.684;2023-05-25T07:13:25;101396.97;;;30.84;44.72
60371;BME280;48550;40.588;49.684;2023-05-25T07:15:51;101410.28;;;31.81;42.43
60371;BME280;48550;40.588;49.684;2023-05-25T07:18:17;101409.91;;;31.67;42.45
60371;BME280;48550;40.588;49.684;2023-05-25T07:20:43;101403.34;;;31.91;40.61
60371;BME280;48550;40.588;49.684;2023-05-25T07:23:12;101397.19;;;31.82;41.43
60371;BME280;48550;40.588;49.684;2023-05-25T07:25:38;101392.00;;;32.31;40.47
60371;BME280;48550;40.588;49.684;2023-05-25T07:28:04;101386.56;;;32.73;39.20
60371;BME280;48550;40.588;49.684;2023-05-25T07:30:30;101379.47;;;31.86;40.44
60371;BME280;48550;40.588;49.684;2023-05-25T07:32:56;101388.25;;;31.41;41.40
60371;BME280;48550;40.588;49.684;2023-05-25T07:35:23;101382.97;;;31.08;42.76
60371;BME280;48550;40.588;49.684;2023-05-25T07:37:59;101381.63;;;31.02;42.37
60371;BME280;48550;40.588;49.684;2023-05-25T07:40:25;101378.31;;;31.24;41.99
60371;BME280;48550;40.588;49.684;2023-05-25T07:42:52;101362.38;;;31.53;40.72
60371;BME280;48550;40.588;49.684;2023-05-25T07:45:17;101356.13;;;31.24;42.04
60371;BME280;48550;40.588;49.684;2023-05-25T07:47:43;101354.22;;;30.69;42.50
60371;BME280;48550;40.588;49.684;2023-05-25T07:50:09;101352.19;;;30.42;43.45
60371;BME280;48550;40.588;49.684;2023-05-25T07:52:35;101345.94;;;30.17;45.12
60371;BME280;48550;40.588;49.684;2023-05-25T07:55:03;101344.34;;;30.03;43.89
60371;BME280;48550;40.588;49.684;2023-05-25T07:57:29;101337.09;;;28.93;42.45
60371;BME280;48550;40.588;49.684;2023-05-25T07:59:54;101339.91;;;29.17;42.54
60371;BME280;48550;40.588;49.684;2023-05-25T08:02:20;101341.59;;;29.55;42.58
60371;BME280;48550;40.588;49.684;2023-05-25T08:04:46;101338.31;;;29.28;40.17
60371;BME280;48550;40.588;49.684;2023-05-25T08:07:12;101331.91;;;29.61;40.66
60371;BME280;48550;40.588;49.684;2023-05-25T08:09:37;101325.22;;;29.50;38.91
60371;BME280;48550;40.588;49.684;2023-05-25T08:12:03;101319.69;;;29.50;38.67
60371;BME280;48550;40.588;49.684;2023-05-25T08:14:29;101331.91;;;29.61;38.69
60371;BME280;48550;40.588;49.684;2023-05-25T08:16:55;101323.72;;;29.77;39.33
60371;BME280;48550;40.588;49.684;2023-05-25T08:19:21;101320.22;;;29.31;40.11
60371;BME280;48550;40.588;49.684;2023-05-25T08:21:46;101332.03;;;29.77;39.47
60371;BME280;48550;40.588;49.684;2023-05-25T08:24:12;101322.91;;;29.88;38.56
60371;BME280;48550;40.588;49.684;2023-05-25T08:26:38;101336.84;;;29.92;39.39
60371;BME280;48550;40.588;49.684;2023-05-25T08:29:05;101329.13;;;29.49;41.27
60371;BME280;48550;40.588;49.684;2023-05-25T08:31:31;101330.06;;;29.77;41.74
60371;BME280;48550;40.588;49.684;2023-05-25T08:33:58;101326.59;;;29.80;40.26
60371;BME280;48550;40.588;49.684;2023-05-25T08:36:26;101316.19;;;29.28;40.90
60371;BME280;48550;40.588;49.684;2023-05-25T08:38:52;101321.97;;;29.72;39.19
60371;BME280;48550;40.588;49.684;2023-05-25T08:41:19;101317.00;;;29.41;39.68
60371;BME280;48550;40.588;49.684;2023-05-25T08:43:45;101312.31;;;29.54;39.93
60371;BME280;48550;40.588;49.684;2023-05-25T08:46:12;101301.91;;;29.26;41.41
60371;BME280;48550;40.588;49.684;2023-05-25T08:48:38;101299.84;;;29.23;40.10
60371;BME280;48550;40.588;49.684;2023-05-25T08:51:06;101303.31;;;29.45;40.90
60371;BME280;48550;40.588;49.684;2023-05-25T08:53:37;101293.03;;;29.69;40.54
60371;BME280;48550;40.588;49.684;2023-05-25T08:56:11;101296.84;;;29.04;41.71
60371;BME280;48550;40.588;49.684;2023-05-25T08:58:58;101292.13;;;28.38;43.53
60371;BME280;48550;40.588;49.684;2023-05-25T09:01:27;101300.44;;;28.51;43.46
60371;BME280;48550;40.588;49.684;2023-05-25T09:03:56;101295.94;;;28.46;42.20
60371;BME280;48550;40.588;49.684;2023-05-25T09:06:24;101288.84;;;28.57;42.57
60371;BME280;48550;40.588;49.684;2023-05-25T09:08:51;101283.66;;;28.56;41.76
60371;BME280;48550;40.588;49.684;2023-05-25T09:11:18;101287.09;;;28.86;42.75
60371;BME280;48550;40.588;49.684;2023-05-25T09:13:45;101276.44;;;28.63;43.42
60371;BME280;48550;40.588;49.684;2023-05-25T09:16:11;101272.13;;;28.41;43.03
60371;BME280;48550;40.588;49.684;2023-05-25T09:18:37;101270.13;;;28.21;43.88
60371;BME280;48550;40.588;49.684;2023-05-25T09:21:04;101274.06;;;27.78;44.74
60371;BME280;48550;40.588;49.684;2023-05-25T09:23:30;101275.47;;;28.05;42.16
60371;BME280;48550;40.588;49.684;2023-05-25T09:25:57;101268.16;;;28.63;42.22
60371;BME280;48550;40.588;49.684;2023-05-25T09:28:23;101270.06;;;28.84;41.90
60371;BME280;48550;40.588;49.684;2023-05-25T09:30:53;101265.34;;;28.84;42.02
60371;BME280;48550;40.588;49.684;2023-05-25T09:33:20;101251.22;;;28.65;40.45
60371;BME280;48550;40.588;49.684;2023-05-25T09:35:46;101257.88;;;28.52;41.24
60371;BME280;48550;40.588;49.684;2023-05-25T09:38:15;101262.09;;;28.37;43.55
60371;BME280;48550;40.588;49.684;2023-05-25T09:40:41;101256.56;;;28.37;43.97
60371;BME280;48550;40.588;49.684;2023-05-25T09:43:07;101254.47;;;27.92;46.79
60371;BME280;48550;40.588;49.684;2023-05-25T09:45:33;101260.47;;;27.94;47.13
60371;BME280;48550;40.588;49.684;2023-05-25T09:48:00;101261.75;;;27.97;53.40
60371;BME280;48550;40.588;49.684;2023-05-25T09:50:27;101250.16;;;27.82;60.73
60371;BME280;48550;40.588;49.684;2023-05-25T09:52:59;101248.53;;;26.84;66.15
60371;BME280;48550;40.588;49.684;2023-05-25T09:55:29;101262.91;;;27.37;65.70
60371;BME280;48550;40.588;49.684;2023-05-25T09:57:55;101265.22;;;27.26;65.29
60371;BME280;48550;40.588;49.684;2023-05-25T10:00:22;101270.19;;;26.95;70.90
60371;BME280;48550;40.588;49.684;2023-05-25T10:02:49;101267.31;;;26.82;73.84
60371;BME280;48550;40.588;49.684;2023-05-25T10:05:15;101271.41;;;26.76;68.43
60371;BME280;48550;40.588;49.684;2023-05-25T10:07:43;101264.44;;;25.84;83.62
60371;BME280;48550;40.588;49.684;2023-05-25T10:10:12;101272.56;;;26.06;84.27
60371;BME280;48550;40.588;49.684;2023-05-25T10:12:40;101262.38;;;26.24;72.99
60371;BME280;48550;40.588;49.684;2023-05-25T10:15:08;101264.16;;;26.20;70.09
60371;BME280;48550;40.588;49.684;2023-05-25T10:17:44;101252.16;;;25.98;78.11
60371;BME280;48550;40.588;49.684;2023-05-25T10:20:13;101259.75;;;25.84;85.66
60371;BME280;48550;40.588;49.684;2023-05-25T10:23:07;101265.91;;;25.81;76.87
60371;BME280;48550;40.588;49.684;2023-05-25T10:25:39;101261.53;;;25.72;71.90
60371;BME280;48550;40.588;49.684;2023-05-25T10:28:26;101256.44;;;25.56;81.22
60371;BME280;48550;40.588;49.684;2023-05-25T10:30:55;101252.28;;;25.68;72.17
60371;BME280;48550;40.588;49.684;2023-05-25T10:33:21;101254.34;;;25.53;71.64
60371;BME280;48550;40.588;49.684;2023-05-25T10:35:48;101253.06;;;25.59;77.18
60371;BME280;48550;40.588;49.684;2023-05-25T10:38:16;101259.50;;;25.46;77.70
60371;BME280;48550;40.588;49.684;2023-05-25T10:40:44;101253.97;;;25.29;79.73
60371;BME280;48550;40.588;49.684;2023-05-25T10:43:13;101262.13;;;25.12;84.60
60371;BME280;48550;40.588;49.684;2023-05-25T10:45:41;101265.63;;;25.34;84.17
60371;BME280;48550;40.588;49.684;2023-05-25T10:48:06;101265.22;;;25.19;94.44
60371;BME280;48550;40.588;49.684;2023-05-25T10:50:36;101265.34;;;25.14;100.00
60371;BME280;48550;40.588;49.684;2023-05-25T10:53:06;101263.13;;;24.62;100.00
60371;BME280;48550;40.588;49.684;2023-05-25T10:58:17;101268.56;;;23.95;100.00
60371;BME280;48550;40.588;49.684;2023-05-25T11:00:58;101270.09;;;23.74;100.00
60371;BME280;48550;40.588;49.684;2023-05-25T11:06:16;101260.16;;;23.64;100.00
60371;BME280;48550;40.588;49.684;2023-05-25T11:08:55;101273.56;;;23.66;100.00
60371;BME280;48550;40.588;49.684;2023-05-25T11:19:52;101289.94;;;22.32;100.00
60371;BME280;48550;40.588;49.684;2023-05-25T11:22:19;101279.25;;;21.93;100.00
60371;BME280;48550;40.588;49.684;2023-05-25T11:24:50;101270.38;;;21.82;100.00
60371;BME280;48550;40.588;49.684;2023-05-25T11:27:27;101273.28;;;21.91;100.00
60371;BME280;48550;40.588;49.684;2023-05-25T11:29:55;101273.56;;;21.89;100.00
60371;BME280;48550;40.588;49.684;2023-05-25T11:32:22;101282.28;;;21.73;100.00
60371;BME280;48550;40.588;49.684;2023-05-25T11:34:50;101285.28;;;21.71;100.00
60371;BME280;48550;40.588;49.684;2023-05-25T11:37:18;101294.75;;;21.55;100.00
60371;BME280;48550;40.588;49.684;2023-05-25T11:39:52;101293.97;;;21.31;100.00
60371;BME280;48550;40.588;49.684;2023-05-25T11:42:22;101294.44;;;21.62;100.00
60371;BME280;48550;40.588;49.684;2023-05-25T11:44:48;101302.59;;;21.85;100.00
60371;BME280;48550;40.588;49.684;2023-05-25T11:47:14;101297.78;;;21.77;100.00
60371;BME280;48550;40.588;49.684;2023-05-25T11:49:45;101324.19;;;21.63;100.00
60371;BME280;48550;40.588;49.684;2023-05-25T11:52:13;101319.06;;;21.33;100.00
60371;BME280;48550;40.588;49.684;2023-05-25T11:54:39;101315.75;;;21.07;100.00
60371;BME280;48550;40.588;49.684;2023-05-25T11:57:14;101311.16;;;21.31;100.00
60371;BME280;48550;40.588;49.684;2023-05-25T11:59:46;101303.88;;;21.21;100.00
60371;BME280;48550;40.588;49.684;2023-05-25T12:02:13;101307.31;;;20.74;100.00
60371;BME280;48550;40.588;49.684;2023-05-25T12:04:39;101290.00;;;20.89;100.00
60371;BME280;48550;40.588;49.684;2023-05-25T12:07:06;101303.91;;;21.16;100.00
60371;BME280;48550;40.588;49.684;2023-05-25T12:09:32;101312.66;;;21.42;100.00
60371;BME280;48550;40.588;49.684;2023-05-25T12:11:59;101312.38;;;21.44;100.00
60371;BME280;48550;40.588;49.684;2023-05-25T12:14:26;101311.56;;;21.43;100.00
60371;BME280;48550;40.588;49.684;2023-05-25T12:16:52;101310.63;;;21.29;100.00
60371;BME280;48550;40.588;49.684;2023-05-25T12:19:20;101302.69;;;21.04;100.00
60371;BME280;48550;40.588;49.684;2023-05-25T12:21:46;101301.13;;;21.21;100.00
60371;BME280;48550;40.588;49.684;2023-05-25T12:24:16;101304.31;;;21.05;100.00
60371;BME280;48550;40.588;49.684;2023-05-25T12:26:49;101314.19;;;21.30;100.00
60371;BME280;48550;40.588;49.684;2023-05-25T12:29:16;101305.09;;;20.81;100.00
60371;BME280;48550;40.588;49.684;2023-05-25T12:31:42;101327.44;;;21.12;100.00
60371;BME280;48550;40.588;49.684;2023-05-25T12:36:47;101317.25;;;20.94;100.00
60371;BME280;48550;40.588;49.684;2023-05-25T12:39:17;101306.03;;;20.61;100.00
60371;BME280;48550;40.588;49.684;2023-05-25T12:41:50;101303.88;;;20.58;100.00
60371;BME280;48550;40.588;49.684;2023-05-25T12:44:31;101302.31;;;20.52;100.00
60371;BME280;48550;40.588;49.684;2023-05-25T12:47:18;101288.66;;;20.52;100.00
60371;BME280;48550;40.588;49.684;2023-05-25T12:49:49;101296.28;;;20.55;100.00
60371;BME280;48550;40.588;49.684;2023-05-25T12:52:36;101296.84;;;20.52;100.00
60371;BME280;48550;40.588;49.684;2023-05-25T12:55:27;101317.03;;;20.51;100.00